Time;durP1;ratioP1;P1;durP2;ratioP2;P2;SDS_P1;SDS_P2;PMS_P1;PMS_P2;Temp;Humidity;BMP_temperature;BMP_pressure;BME280_temperature;BME280_humidity;BME280_pressure;Samples;Min_cycle;Max_cycle;Signal;HPM_P1;HPM_P2
2021/10/12 00:00:33;;;;;;;0.38;0.38;;;;;;;6.72;61.56;100136.91;5072157;28;20392;-66
2021/10/12 00:02:59;;;;;;;0.30;0.30;;;;;;;6.68;61.85;100141.66;5037440;28;20084;-67
2021/10/12 00:05:25;;;;;;;0.40;0.40;;;;;;;6.70;61.97;100131.66;5036992;28;20488;-68
2021/10/12 00:07:52;;;;;;;0.30;0.30;;;;;;;6.62;62.14;100130.50;5053797;28;20059;-67
2021/10/12 00:10:18;;;;;;;0.30;0.30;;;;;;;6.56;62.34;100120.22;5070441;28;20181;-66
2021/10/12 00:12:43;;;;;;;0.40;0.40;;;;;;;6.58;62.57;100129.88;5053737;28;20053;-69
2021/10/12 00:15:10;;;;;;;0.30;0.30;;;;;;;6.53;62.48;100130.22;5070783;28;20063;-68
2021/10/12 00:17:36;;;;;;;0.30;0.30;;;;;;;6.52;62.45;100125.81;5073730;28;20060;-71
2021/10/12 00:20:04;;;;;;;0.30;0.30;;;;;;;6.50;63.08;100127.75;5072047;28;20066;-66
2021/10/12 00:22:30;;;;;;;0.38;0.38;;;;;;;6.43;63.34;100126.47;5072531;28;20128;-71
2021/10/12 00:24:56;;;;;;;0.30;0.30;;;;;;;6.39;63.36;100125.00;5072876;28;20068;-67
2021/10/12 00:27:22;;;;;;;0.30;0.30;;;;;;;6.35;63.86;100118.13;5073522;28;20135;-67
2021/10/12 00:29:48;;;;;;;0.40;0.40;;;;;;;6.30;64.02;100125.69;5073555;28;20193;-66
2021/10/12 00:32:14;;;;;;;0.30;0.30;;;;;;;6.34;63.62;100119.13;5055400;28;20394;-68
2021/10/12 00:34:39;;;;;;;0.38;0.38;;;;;;;6.33;63.80;100120.09;5072729;28;20531;-68
2021/10/12 00:37:05;;;;;;;0.30;0.30;;;;;;;6.31;64.02;100122.03;5073648;28;20056;-66
2021/10/12 00:39:31;;;;;;;0.30;0.30;;;;;;;6.33;64.15;100120.09;5055855;28;20056;-66
2021/10/12 00:41:58;;;;;;;0.40;0.40;;;;;;;6.29;64.11;100118.63;5074025;28;20050;-67
2021/10/12 00:44:25;;;;;;;0.30;0.30;;;;;;;6.28;64.03;100111.50;5071857;28;20052;-67
2021/10/12 00:46:52;;;;;;;0.30;0.30;;;;;;;6.29;63.93;100113.25;5072170;28;20044;-67
2021/10/12 00:49:18;;;;;;;0.30;0.30;;;;;;;6.29;64.35;100118.63;5039540;28;20147;-66
2021/10/12 00:51:45;;;;;;;0.30;0.30;;;;;;;6.27;64.34;100109.81;5055733;28;20469;-68
2021/10/12 00:54:11;;;;;;;0.30;0.30;;;;;;;6.27;64.51;100110.66;5054130;28;20048;-66
2021/10/12 00:56:37;;;;;;;0.30;0.30;;;;;;;6.22;64.34;100111.97;5072987;28;20159;-70
2021/10/12 00:59:04;;;;;;;0.30;0.30;;;;;;;6.19;64.96;100117.56;5054293;28;20116;-68
2021/10/12 01:01:30;;;;;;;0.30;0.30;;;;;;;6.16;64.81;100107.03;5053769;28;20443;-65
2021/10/12 01:03:56;;;;;;;0.38;0.38;;;;;;;6.14;65.17;100109.81;5054761;28;20118;-66
2021/10/12 01:06:22;;;;;;;0.40;0.40;;;;;;;6.15;65.21;100105.34;5072005;28;20056;-66
2021/10/12 01:08:48;;;;;;;0.32;0.32;;;;;;;6.13;64.93;100107.25;5053791;28;20567;-65
2021/10/12 01:11:14;;;;;;;0.38;0.38;;;;;;;6.16;64.90;100101.69;5070548;28;20127;-67
2021/10/12 01:13:40;;;;;;;0.30;0.30;;;;;;;6.18;64.75;100105.09;5053480;28;20064;-66
2021/10/12 01:16:06;;;;;;;0.40;0.40;;;;;;;6.14;65.18;100103.59;5052615;28;20591;-65
2021/10/12 01:18:32;;;;;;;0.40;0.40;;;;;;;6.17;64.94;100098.00;5070642;28;20102;-66
2021/10/12 01:20:58;;;;;;;0.40;0.40;;;;;;;6.18;65.23;100102.41;5070539;28;20101;-66
2021/10/12 01:23:23;;;;;;;0.40;0.40;;;;;;;6.12;65.00;100102.88;5069353;28;20056;-66
2021/10/12 01:25:50;;;;;;;0.30;0.30;;;;;;;6.12;65.30;100094.81;5070439;28;20056;-66
2021/10/12 01:28:16;;;;;;;0.40;0.40;;;;;;;6.12;65.14;100090.31;5052319;28;20110;-66
2021/10/12 01:30:42;;;;;;;0.30;0.30;;;;;;;6.14;64.92;100098.22;5052525;28;20135;-66
2021/10/12 01:33:08;;;;;;;0.30;0.30;;;;;;;6.16;65.10;100085.56;5069109;28;20139;-68
2021/10/12 01:35:35;;;;;;;0.30;0.30;;;;;;;6.11;65.03;100085.06;5070641;28;20138;-67
2021/10/12 01:38:00;;;;;;;0.40;0.40;;;;;;;6.13;65.47;100085.78;5053478;28;20458;-65
2021/10/12 01:40:26;;;;;;;0.40;0.40;;;;;;;6.10;65.24;100081.50;5069383;28;20500;-66
2021/10/12 01:42:56;;;;;;;0.40;0.40;;;;;;;6.10;65.31;100077.97;5068969;28;20476;-67
2021/10/12 01:45:24;;;;;;;0.30;0.30;;;;;;;6.08;65.72;100082.59;5051769;28;20114;-66
2021/10/12 01:47:51;;;;;;;0.30;0.30;;;;;;;6.12;65.09;100076.88;5068544;28;20045;-68
2021/10/12 01:50:17;;;;;;;0.40;0.40;;;;;;;6.09;65.76;100078.94;5070239;28;20067;-66
2021/10/12 01:52:43;;;;;;;0.32;0.32;;;;;;;6.08;65.81;100077.22;5068637;28;20052;-68
2021/10/12 01:55:08;;;;;;;0.40;0.40;;;;;;;6.01;65.89;100074.97;5052003;28;20064;-65
2021/10/12 01:57:35;;;;;;;0.40;0.40;;;;;;;6.02;66.14;100079.38;5069913;28;20044;-65
2021/10/12 02:00:01;;;;;;;0.40;0.40;;;;;;;6.00;65.98;100075.09;5070338;28;20419;-66
2021/10/12 02:02:26;;;;;;;0.40;0.40;;;;;;;5.95;66.43;100070.06;5068727;28;20301;-65
2021/10/12 02:04:52;;;;;;;0.40;0.40;;;;;;;5.91;66.62;100076.59;5070006;28;20056;-67
2021/10/12 02:07:18;;;;;;;0.30;0.30;;;;;;;5.90;66.63;100074.88;5069932;28;20128;-66
2021/10/12 02:09:43;;;;;;;0.30;0.30;;;;;;;5.90;66.69;100069.50;5070230;28;20083;-65
2021/10/12 02:12:09;;;;;;;0.32;0.32;;;;;;;5.86;66.71;100061.81;5051628;28;20166;-66
2021/10/12 02:14:35;;;;;;;0.40;0.40;;;;;;;5.85;66.92;100060.06;5072423;28;20056;-65
2021/10/12 02:17:01;;;;;;;0.40;0.40;;;;;;;5.87;66.82;100064.34;5039000;28;20075;-65
2021/10/12 02:19:27;;;;;;;0.30;0.30;;;;;;;5.90;66.97;100061.47;5073725;28;20094;-64
2021/10/12 02:21:52;;;;;;;0.30;0.30;;;;;;;5.89;66.50;100062.44;5072500;28;20408;-66
2021/10/12 02:24:18;;;;;;;0.40;0.40;;;;;;;5.90;66.73;100058.78;5072257;28;20074;-66
2021/10/12 02:26:44;;;;;;;0.38;0.38;;;;;;;5.91;67.00;100065.00;5055540;28;20526;-66
2021/10/12 02:29:10;;;;;;;0.40;0.40;;;;;;;5.84;67.23;100061.03;5072231;28;20044;-66
2021/10/12 02:31:36;;;;;;;0.40;0.40;;;;;;;5.84;66.86;100056.53;5072258;28;20057;-65
2021/10/12 02:34:02;;;;;;;0.40;0.40;;;;;;;5.83;66.79;100057.50;5072286;28;20609;-66
2021/10/12 02:36:27;;;;;;;0.38;0.38;;;;;;;5.85;67.10;100054.69;5055603;28;20207;-66
2021/10/12 02:38:53;;;;;;;0.40;0.40;;;;;;;5.83;67.01;100052.13;5055517;28;20512;-66
2021/10/12 02:41:19;;;;;;;0.40;0.40;;;;;;;5.83;66.84;100052.13;5073279;28;20108;-71
2021/10/12 02:43:45;;;;;;;0.40;0.40;;;;;;;5.83;66.65;100057.50;5071548;28;20052;-67
2021/10/12 02:46:11;;;;;;;0.40;0.40;;;;;;;5.79;67.02;100046.13;5071573;28;20102;-66
2021/10/12 02:48:36;;;;;;;0.40;0.40;;;;;;;5.82;66.96;100050.44;5071774;28;20063;-66
2021/10/12 02:51:02;;;;;;;0.30;0.30;;;;;;;5.82;66.93;100050.44;5072886;28;20483;-66
2021/10/12 02:53:28;;;;;;;0.30;0.30;;;;;;;5.75;67.06;100043.78;5073263;28;20064;-66
2021/10/12 02:55:53;;;;;;;0.40;0.40;;;;;;;5.80;66.96;100052.34;5072803;28;20508;-67
2021/10/12 02:58:19;;;;;;;0.40;0.40;;;;;;;5.81;67.04;100043.34;5073233;28;20393;-67
2021/10/12 03:00:45;;;;;;;0.40;0.40;;;;;;;5.83;66.79;100046.78;5072045;28;20052;-67
2021/10/12 03:03:11;;;;;;;0.30;0.30;;;;;;;5.81;66.95;100048.69;5073320;28;20068;-67
2021/10/12 03:05:37;;;;;;;0.40;0.40;;;;;;;5.78;67.14;100046.25;5073733;28;20060;-69
2021/10/12 03:08:03;;;;;;;0.40;0.40;;;;;;;5.75;67.21;100033.91;5072616;28;20044;-66
2021/10/12 03:10:30;;;;;;;0.32;0.32;;;;;;;5.79;66.90;100039.91;5071295;28;20496;-67
2021/10/12 03:12:55;;;;;;;0.30;0.30;;;;;;;5.81;67.14;100037.97;5071706;28;20067;-66
2021/10/12 03:15:21;;;;;;;0.30;0.30;;;;;;;5.75;67.26;100028.56;5072820;28;20060;-66
2021/10/12 03:17:47;;;;;;;0.30;0.30;;;;;;;5.79;66.72;100030.03;5072415;28;20052;-67
2021/10/12 03:20:12;;;;;;;0.40;0.40;;;;;;;5.80;67.01;100030.91;5073044;28;20110;-72
2021/10/12 03:22:39;;;;;;;0.40;0.40;;;;;;;5.76;66.76;100026.72;5054694;28;20060;-67
2021/10/12 03:25:05;;;;;;;0.40;0.40;;;;;;;5.74;67.20;100023.28;5072141;28;20095;-66
2021/10/12 03:27:31;;;;;;;0.30;0.30;;;;;;;5.73;66.97;100030.47;5071549;28;20052;-67
2021/10/12 03:29:57;;;;;;;0.30;0.30;;;;;;;5.75;67.25;100023.19;5072461;28;20061;-65
2021/10/12 03:32:22;;;;;;;0.40;0.40;;;;;;;5.75;67.07;100022.34;5071937;28;20171;-68
2021/10/12 03:34:48;;;;;;;0.30;0.30;;;;;;;5.71;67.21;100021.69;5070800;28;20408;-66
2021/10/12 03:37:14;;;;;;;0.30;0.30;;;;;;;5.73;67.15;100018.91;5054249;28;20041;-67
2021/10/12 03:39:39;;;;;;;0.30;0.30;;;;;;;5.72;67.00;100022.56;5072110;28;20163;-66
2021/10/12 03:42:05;;;;;;;0.40;0.40;;;;;;;5.70;67.12;100021.78;5071096;28;20052;-68
2021/10/12 03:44:31;;;;;;;0.40;0.40;;;;;;;5.69;67.25;100028.13;5054240;28;20060;-68
2021/10/12 03:46:58;;;;;;;0.40;0.40;;;;;;;5.63;67.32;100018.72;5037520;28;20524;-69
2021/10/12 03:49:24;;;;;;;0.40;0.40;;;;;;;5.63;67.83;100023.19;5053618;28;20143;-66
2021/10/12 03:51:50;;;;;;;0.40;0.40;;;;;;;5.61;67.61;100022.47;5070496;28;20411;-68
2021/10/12 03:54:15;;;;;;;0.40;0.40;;;;;;;5.55;67.83;100013.88;5053794;28;20136;-68
2021/10/12 03:56:41;;;;;;;0.40;0.40;;;;;;;5.47;68.22;100013.59;5070141;28;20145;-68
2021/10/12 03:59:08;;;;;;;0.40;0.40;;;;;;;5.49;68.27;100022.38;5070692;28;20072;-68
2021/10/12 04:01:34;;;;;;;0.35;0.35;;;;;;;5.47;68.13;100018.94;5071929;28;20056;-71
2021/10/12 04:04:01;;;;;;;0.40;0.40;;;;;;;5.45;68.37;100015.53;5070447;28;20047;-67
2021/10/12 04:06:26;;;;;;;0.40;0.40;;;;;;;5.45;68.42;100020.03;5053833;28;20059;-68
2021/10/12 04:08:52;;;;;;;0.40;0.40;;;;;;;5.36;68.89;100005.44;5071785;28;20048;-69
2021/10/12 04:11:18;;;;;;;0.40;0.40;;;;;;;5.43;68.45;100017.47;5053294;28;20061;-69
2021/10/12 04:13:44;;;;;;;0.40;0.40;;;;;;;5.39;69.13;100015.97;5071573;28;20169;-67
2021/10/12 04:16:09;;;;;;;0.40;0.40;;;;;;;5.37;68.88;100015.19;5053176;28;20346;-68
2021/10/12 04:18:35;;;;;;;0.40;0.40;;;;;;;5.37;69.00;100020.56;5070483;28;20048;-68
2021/10/12 04:21:01;;;;;;;0.40;0.40;;;;;;;5.39;68.88;100013.28;5055003;28;20044;-74
2021/10/12 04:23:27;;;;;;;0.40;0.40;;;;;;;5.39;69.19;100020.47;5054932;28;20052;-72
2021/10/12 04:25:52;;;;;;;0.40;0.40;;;;;;;5.34;69.40;100007.41;5071021;28;20057;-71
2021/10/12 04:28:18;;;;;;;0.40;0.40;;;;;;;5.35;69.19;100008.25;5053364;28;20106;-72
2021/10/12 04:30:45;;;;;;;0.40;0.40;;;;;;;5.40;68.89;100017.66;5053148;28;20072;-70
2021/10/12 04:33:13;;;;;;;0.40;0.40;;;;;;;5.39;69.19;100024.00;5069161;28;20148;-72
2021/10/12 04:35:40;;;;;;;0.50;0.50;;;;;;;5.42;69.15;100014.91;5053084;28;20064;-69
2021/10/12 04:38:05;;;;;;;0.40;0.40;;;;;;;5.39;69.02;100015.97;5070789;28;20518;-71
2021/10/12 04:40:31;;;;;;;0.40;0.40;;;;;;;5.43;68.80;100017.47;5052304;28;20052;-72
2021/10/12 04:42:58;;;;;;;0.40;0.40;;;;;;;5.49;68.86;100006.31;5069689;28;20114;-69
2021/10/12 04:45:24;;;;;;;0.40;0.40;;;;;;;5.61;68.56;100019.78;5052481;28;20080;-70
2021/10/12 04:47:50;;;;;;;0.40;0.40;;;;;;;5.55;67.87;100005.84;5070681;28;20060;-72
2021/10/12 04:50:16;;;;;;;0.40;0.40;;;;;;;5.65;68.13;100016.78;5051671;28;20146;-73
2021/10/12 04:52:43;;;;;;;0.40;0.40;;;;;;;5.72;67.65;100018.03;5051404;28;20472;-70
2021/10/12 04:55:09;;;;;;;0.50;0.50;;;;;;;5.81;67.47;100016.50;5069224;28;20084;-73
2021/10/12 04:57:35;;;;;;;0.40;0.40;;;;;;;5.85;67.44;100007.28;5069191;28;20049;-69
2021/10/12 05:00:07;;;;;;;0.43;0.43;;;;;;;5.87;66.99;100005.34;5052957;28;20055;-70
2021/10/12 05:02:34;;;;;;;0.40;0.40;;;;;;;5.97;67.16;100011.78;5053073;28;20480;-69
2021/10/12 05:05:00;;;;;;;0.40;0.40;;;;;;;6.04;66.69;100002.31;5036585;28;20065;-69
2021/10/12 05:07:25;;;;;;;0.50;0.50;;;;;;;6.13;66.29;100006.13;5068974;28;20048;-71
2021/10/12 05:09:51;;;;;;;0.50;0.50;;;;;;;6.25;65.68;100015.97;5052479;28;20504;-72
2021/10/12 05:12:17;;;;;;;0.80;0.80;;;;;;;6.89;64.05;100004.81;5069366;28;20052;-72
2021/10/12 05:14:43;;;;;;;0.50;0.50;;;;;;;7.09;62.67;100010.44;5069221;28;20141;-71
2021/10/12 05:17:22;;;;;;;0.50;0.50;;;;;;;6.97;63.03;99990.78;5035871;28;20052;-69
2021/10/12 05:19:49;;;;;;;0.50;0.50;;;;;;;7.20;62.52;100005.97;5070533;28;20591;-69
2021/10/12 05:22:15;;;;;;;0.60;0.60;;;;;;;7.35;62.18;100003.91;5068655;28;20048;-71
2021/10/12 05:24:40;;;;;;;0.60;0.60;;;;;;;7.40;61.59;100008.91;5070377;28;20416;-69
2021/10/12 05:27:07;;;;;;;0.50;0.50;;;;;;;7.82;59.80;100009.94;5069080;28;20052;-70
2021/10/12 05:29:33;;;;;;;0.60;0.60;;;;;;;7.74;59.91;100012.41;5035972;28;20052;-71
2021/10/12 05:31:59;;;;;;;0.70;0.70;;;;;;;8.13;59.34;100007.44;5068978;28;20520;-69
2021/10/12 05:34:25;;;;;;;0.60;0.60;;;;;;;8.36;58.60;100009.06;5052265;28;20051;-71
2021/10/12 05:36:51;;;;;;;0.60;0.60;;;;;;;8.26;58.65;100000.03;5052854;28;20057;-70
2021/10/12 05:39:17;;;;;;;0.50;0.50;;;;;;;8.05;59.00;100001.84;5052343;28;20056;-69
2021/10/12 05:41:43;;;;;;;0.50;0.50;;;;;;;8.01;58.75;100008.44;5052142;28;20040;-69
2021/10/12 05:44:09;;;;;;;0.60;0.60;;;;;;;7.96;59.16;99996.22;5070750;28;20048;-72
2021/10/12 05:46:34;;;;;;;0.90;0.90;;;;;;;8.64;57.50;100004.09;5069237;28;20056;-69
2021/10/12 05:49:00;;;;;;;0.80;0.80;;;;;;;8.90;56.44;100002.72;5055202;28;20511;-69
2021/10/12 05:51:27;;;;;;;0.90;0.90;;;;;;;9.57;55.11;100000.50;5073552;28;20056;-69
2021/10/12 05:53:54;;;;;;;0.90;0.90;;;;;;;9.78;54.06;99993.19;5073177;28;20056;-71
2021/10/12 05:56:24;;;;;;;1.00;1.00;;;;;;;10.13;52.85;99998.13;5074610;28;20072;-71
2021/10/12 05:58:53;;;;;;;1.00;1.00;;;;;;;10.91;50.94;99998.13;5041549;28;20048;-71
2021/10/12 06:01:21;;;;;;;1.00;1.00;;;;;;;11.24;49.78;99999.47;5056716;28;20067;-72
2021/10/12 06:03:47;;;;;;;1.00;1.00;;;;;;;11.71;48.54;99996.75;5073429;28;20477;-71
2021/10/12 06:06:13;;;;;;;0.90;0.90;;;;;;;12.58;46.78;99999.91;5040212;28;20143;-71
2021/10/12 06:08:40;;;;;;;1.00;1.00;;;;;;;12.71;45.87;99994.94;5073586;28;20136;-71
2021/10/12 06:11:07;;;;;;;0.95;0.95;;;;;;;12.68;45.68;99990.66;5074970;28;20060;-70
2021/10/12 06:13:34;;;;;;;0.90;0.90;;;;;;;12.31;46.26;99998.97;5056229;28;20087;-72
2021/10/12 06:16:00;;;;;;;0.90;0.90;;;;;;;12.10;46.99;99998.41;5023396;28;20063;-72
2021/10/12 06:18:27;;;;;;;0.90;0.90;;;;;;;12.73;45.99;99999.22;5057025;28;20496;-71
2021/10/12 06:20:53;;;;;;;0.95;0.95;;;;;;;12.37;46.52;100006.50;5057145;28;20044;-72
2021/10/12 06:23:19;;;;;;;0.90;0.90;;;;;;;12.35;46.74;100010.34;5057568;28;20056;-72
2021/10/12 06:25:45;;;;;;;0.90;0.90;;;;;;;13.16;45.06;99993.91;5073082;28;20146;-71
2021/10/12 06:28:15;;;;;;;0.90;0.90;;;;;;;13.39;44.64;99994.28;5056360;28;20083;-72
2021/10/12 06:30:42;;;;;;;0.90;0.90;;;;;;;13.70;43.45;99998.16;5056957;28;20113;-70
2021/10/12 06:33:08;;;;;;;0.90;0.90;;;;;;;14.48;41.99;99991.63;5072804;28;20179;-72
2021/10/12 06:35:33;;;;;;;0.90;0.90;;;;;;;15.18;40.26;99994.69;5056101;28;20090;-72
2021/10/12 06:38:01;;;;;;;0.80;0.80;;;;;;;14.85;40.56;99990.31;5072445;28;20052;-71
2021/10/12 06:40:28;;;;;;;0.80;0.80;;;;;;;14.82;40.69;99994.22;5056694;28;20308;-72
2021/10/12 06:42:54;;;;;;;0.90;0.90;;;;;;;15.38;39.76;99994.31;5039300;28;20049;-72
2021/10/12 06:45:20;;;;;;;0.90;0.90;;;;;;;15.20;39.79;99983.59;5022732;28;20056;-72
2021/10/12 06:47:47;;;;;;;0.80;0.80;;;;;;;16.13;38.11;99994.72;5073463;28;20056;-72
2021/10/12 06:50:13;;;;;;;0.60;0.60;;;;;;;16.04;37.66;99993.06;5038725;28;20055;-70
2021/10/12 06:52:39;;;;;;;0.50;0.50;;;;;;;15.86;37.62;99989.75;5071522;28;20136;-72
2021/10/12 06:55:07;;;;;;;0.80;0.80;;;;;;;15.43;38.59;99986.47;5054700;28;20474;-69
2021/10/12 06:57:33;;;;;;;0.90;0.90;;;;;;;15.52;38.14;99979.13;5073314;28;20064;-72
2021/10/12 06:59:59;;;;;;;1.00;1.00;;;;;;;16.24;36.69;99984.44;5054493;28;20136;-71
2021/10/12 07:02:25;;;;;;;0.90;0.90;;;;;;;17.25;35.22;99969.66;5072404;28;20151;-73
2021/10/12 07:04:51;;;;;;;0.90;0.90;;;;;;;17.37;34.96;99984.56;5054931;28;20057;-70
2021/10/12 07:07:16;;;;;;;0.90;0.90;;;;;;;18.84;32.52;99974.41;5055190;28;20126;-72
2021/10/12 07:09:42;;;;;;;0.90;0.90;;;;;;;19.21;31.31;99975.13;5055143;28;20044;-71
2021/10/12 07:12:08;;;;;;;0.80;0.80;;;;;;;18.96;32.12;99964.59;5054949;28;20522;-72
2021/10/12 07:14:34;;;;;;;0.80;0.80;;;;;;;18.50;31.92;99975.06;5055185;28;20044;-69
2021/10/12 07:17:00;;;;;;;0.80;0.80;;;;;;;18.55;32.04;99965.25;5054905;28;20064;-71
2021/10/12 07:19:29;;;;;;;0.90;0.90;;;;;;;19.76;31.03;99967.91;5055106;28;20472;-70
2021/10/12 07:21:55;;;;;;;0.90;0.90;;;;;;;20.92;29.46;99968.69;5039066;28;20048;-72
2021/10/12 07:24:21;;;;;;;0.90;0.90;;;;;;;19.86;29.58;99973.88;5038345;28;20486;-71
2021/10/12 07:26:48;;;;;;;0.80;0.80;;;;;;;19.21;30.52;99964.16;5037957;28;20059;-72
2021/10/12 07:29:14;;;;;;;0.70;0.70;;;;;;;19.48;30.55;99973.41;5038248;28;20051;-71
2021/10/12 07:31:40;;;;;;;0.90;0.90;;;;;;;20.37;29.37;99964.34;5054771;28;20072;-73
2021/10/12 07:34:07;;;;;;;0.80;0.80;;;;;;;20.06;30.17;99967.63;5054191;28;20131;-71
2021/10/12 07:36:32;;;;;;;0.90;0.90;;;;;;;20.35;29.38;99971.94;5071438;28;20047;-72
2021/10/12 07:38:58;;;;;;;0.90;0.90;;;;;;;20.68;28.51;99967.38;5054208;28;20149;-70
2021/10/12 07:41:24;;;;;;;0.80;0.80;;;;;;;21.46;27.73;99968.66;5070776;28;20083;-72
2021/10/12 07:43:50;;;;;;;0.80;0.80;;;;;;;22.49;26.35;99953.06;5070936;28;20446;-71
2021/10/12 07:46:15;;;;;;;0.60;0.60;;;;;;;20.61;28.30;99976.69;5037476;28;20420;-72
2021/10/12 07:48:41;;;;;;;0.85;0.85;;;;;;;20.05;29.05;99966.78;5053969;28;20045;-70
2021/10/12 07:51:07;;;;;;;0.80;0.80;;;;;;;21.13;28.07;99972.25;5037953;28;20055;-71
2021/10/12 07:53:36;;;;;;;0.80;0.80;;;;;;;21.56;26.75;99960.81;5072256;28;20456;-72
2021/10/12 07:56:05;;;;;;;0.80;0.80;;;;;;;20.17;28.68;99976.09;5038247;28;20075;-72
2021/10/12 07:58:31;;;;;;;0.90;0.90;;;;;;;20.25;28.80;99966.84;5070740;28;20163;-72
2021/10/12 08:00:57;;;;;;;0.90;0.90;;;;;;;20.33;28.63;99963.06;5037549;28;20519;-71
2021/10/12 08:03:22;;;;;;;0.90;0.90;;;;;;;19.61;29.29;99958.94;5070903;28;20072;-72
2021/10/12 08:05:48;;;;;;;1.00;1.00;;;;;;;20.63;27.91;99958.94;5054383;28;20090;-72
2021/10/12 08:08:14;;;;;;;0.90;0.90;;;;;;;21.25;27.72;99950.50;5070346;28;20060;-72
2021/10/12 08:10:40;;;;;;;0.90;0.90;;;;;;;21.43;27.18;99948.78;5070041;28;20291;-71
2021/10/12 08:13:10;;;;;;;0.90;0.90;;;;;;;21.01;27.76;99954.72;5053321;28;20055;-71
2021/10/12 08:15:38;;;;;;;0.90;0.90;;;;;;;21.28;27.24;99947.28;5070522;28;20488;-72
2021/10/12 08:18:03;;;;;;;0.90;0.90;;;;;;;20.51;28.43;99959.75;5070505;28;20084;-71
2021/10/12 08:20:29;;;;;;;1.00;1.00;;;;;;;20.98;27.63;99955.16;5070053;28;20079;-71
2021/10/12 08:22:55;;;;;;;0.80;0.80;;;;;;;19.83;29.37;99957.81;5070280;28;20504;-72
2021/10/12 08:25:21;;;;;;;1.00;1.00;;;;;;;21.32;27.49;99954.91;5071481;28;20609;-71
2021/10/12 08:27:47;;;;;;;0.90;0.90;;;;;;;20.59;28.02;99943.09;5053433;28;20044;-71
2021/10/12 08:30:13;;;;;;;0.93;0.93;;;;;;;20.47;28.36;99957.38;5070421;28;20064;-71
2021/10/12 08:32:39;;;;;;;0.90;0.90;;;;;;;20.26;28.00;99952.06;5053043;28;20397;-71
2021/10/12 08:35:08;;;;;;;0.90;0.90;;;;;;;19.93;28.65;99947.31;5070187;28;20063;-71
2021/10/12 08:37:37;;;;;;;0.80;0.80;;;;;;;19.13;29.68;99940.50;5053681;28;20420;-72
2021/10/12 08:40:05;;;;;;;0.90;0.90;;;;;;;19.21;29.92;99942.22;5053448;28;20489;-72
2021/10/12 08:42:34;;;;;;;0.98;0.98;;;;;;;19.81;29.03;99937.94;5053727;28;20098;-71
2021/10/12 08:45:05;;;;;;;1.00;1.00;;;;;;;20.60;27.73;99926.38;5053235;28;20049;-72
2021/10/12 08:47:32;;;;;;;0.90;0.90;;;;;;;21.35;26.71;99935.28;5053443;28;20161;-71
2021/10/12 08:50:07;;;;;;;1.00;1.00;;;;;;;23.01;24.89;99936.38;5069994;28;20546;-72
2021/10/12 08:52:32;;;;;;;1.00;1.00;;;;;;;23.17;24.44;99926.66;5071512;28;20137;-72
2021/10/12 08:54:59;;;;;;;1.00;1.00;;;;;;;22.87;24.54;99925.41;5055286;28;20084;-71
2021/10/12 08:57:29;;;;;;;0.80;0.80;;;;;;;23.34;24.71;99912.06;5055024;28;20143;-73
2021/10/12 08:59:55;;;;;;;0.90;0.90;;;;;;;22.81;24.55;99912.50;5053513;28;20067;-71
2021/10/12 09:02:24;;;;;;;0.90;0.90;;;;;;;23.37;24.12;99918.19;5069567;28;20226;-71
2021/10/12 09:04:51;;;;;;;0.90;0.90;;;;;;;23.29;23.77;99906.38;5072015;28;20048;-72
2021/10/12 09:07:25;;;;;;;0.90;0.90;;;;;;;23.14;23.78;99905.03;5070087;28;20484;-72
2021/10/12 09:09:52;;;;;;;0.90;0.90;;;;;;;21.70;25.61;99904.69;5053180;28;20048;-73
2021/10/12 09:12:19;;;;;;;0.90;0.90;;;;;;;21.77;25.65;99905.50;5036590;28;20056;-74
2021/10/12 09:14:52;;;;;;;0.80;0.80;;;;;;;20.88;27.08;99893.22;5053352;28;20455;-71
2021/10/12 09:17:39;;;;;;;0.80;0.80;;;;;;;20.86;26.37;99903.56;5069792;28;20512;-72
2021/10/12 09:20:11;;;;;;;0.90;0.90;;;;;;;20.53;26.85;99891.72;5053932;28;20048;-72
2021/10/12 09:22:39;;;;;;;0.90;0.90;;;;;;;20.46;26.94;99880.69;5052733;28;20052;-73
2021/10/12 09:25:09;;;;;;;0.50;0.50;;;;;;;20.63;26.88;99890.25;5071572;28;20147;-73
2021/10/12 09:27:56;;;;;;;0.50;0.50;;;;;;;20.51;26.85;99883.69;5070335;28;20057;-70
2021/10/12 09:30:29;;;;;;;0.50;0.50;;;;;;;19.52;28.04;99878.72;5070347;28;20056;-72
2021/10/12 09:32:59;;;;;;;;;;;;;;;17.79;30.33;99887.38;5070097;28;20048;-73
2021/10/12 09:35:28;;;;;;;0.60;0.60;;;;;;;19.01;28.93;99888.13;5071278;28;19916;-72
2021/10/12 09:38:08;;;;;;;0.60;0.60;;;;;;;18.20;29.75;99873.91;5069336;28;20147;-72
2021/10/12 09:40:36;;;;;;;0.70;0.70;;;;;;;18.15;29.86;99860.00;5052724;28;20069;-69
2021/10/12 09:43:03;;;;;;;0.80;0.80;;;;;;;18.05;29.66;99860.28;5069465;28;20052;-71
2021/10/12 09:45:47;;;;;;;0.90;0.90;;;;;;;18.79;28.97;99872.78;5052678;28;20056;-72
2021/10/12 09:48:35;;;;;;;0.82;0.82;;;;;;;19.46;27.99;99869.41;5052726;28;20066;-72
2021/10/12 09:51:09;;;;;;;0.80;0.80;;;;;;;19.49;28.01;99854.47;5070538;28;20501;-69
2021/10/12 09:53:34;;;;;;;0.88;0.88;;;;;;;19.46;28.19;99855.72;5070570;28;20056;-72
2021/10/12 09:56:02;;;;;;;0.80;0.80;;;;;;;20.53;27.12;99848.63;5069032;28;20057;-69
2021/10/12 09:58:31;;;;;;;0.60;0.60;;;;;;;19.61;27.92;99849.22;5070374;28;20048;-70
2021/10/12 10:00:58;;;;;;;0.70;0.70;;;;;;;19.82;28.04;99846.38;5052435;28;20052;-71
2021/10/12 10:03:24;;;;;;;0.70;0.70;;;;;;;19.37;28.19;99842.38;5019371;28;20052;-71
2021/10/12 10:05:51;;;;;;;0.80;0.80;;;;;;;20.15;27.32;99837.38;5069363;28;20055;-69
2021/10/12 10:08:17;;;;;;;0.90;0.90;;;;;;;20.02;26.76;99831.84;5052155;28;20059;-71
2021/10/12 10:10:44;;;;;;;0.80;0.80;;;;;;;20.43;26.35;99840.75;5052269;28;20048;-71
2021/10/12 10:13:10;;;;;;;0.80;0.80;;;;;;;19.77;26.35;99840.66;5068642;28;20136;-70
2021/10/12 10:15:36;;;;;;;0.70;0.70;;;;;;;18.87;27.74;99842.53;5068662;28;20049;-72
2021/10/12 10:18:03;;;;;;;0.60;0.60;;;;;;;18.40;28.51;99829.47;5068804;28;20465;-71
2021/10/12 10:20:29;;;;;;;0.60;0.60;;;;;;;18.87;28.16;99831.56;5052111;28;20171;-71
2021/10/12 10:22:57;;;;;;;0.55;0.55;;;;;;;18.38;28.76;99826.09;5052105;28;20052;-71
2021/10/12 10:25:34;;;;;;;0.80;0.80;;;;;;;19.40;27.59;99834.56;5051560;28;20147;-69
2021/10/12 10:28:19;;;;;;;0.70;0.70;;;;;;;18.83;28.30;99830.28;5069825;28;20439;-71
2021/10/12 10:31:02;;;;;;;0.70;0.70;;;;;;;18.63;28.50;99829.25;5035091;28;20048;-70
2021/10/12 10:33:34;;;;;;;0.70;0.70;;;;;;;18.04;29.15;99814.84;5052107;28;20056;-71
2021/10/12 10:36:04;;;;;;;0.70;0.70;;;;;;;18.04;28.93;99814.84;5055617;28;20090;-75
2021/10/12 10:38:46;;;;;;;0.60;0.60;;;;;;;18.00;28.94;99816.28;5072178;28;20055;-70
2021/10/12 10:41:13;;;;;;;0.80;0.80;;;;;;;17.85;29.76;99817.38;5072127;28;20096;-71
2021/10/12 10:43:48;;;;;;;0.80;0.80;;;;;;;18.32;28.92;99825.00;5073461;28;20376;-71
2021/10/12 10:46:29;;;;;;;0.80;0.80;;;;;;;19.45;27.39;99815.63;5073631;28;20052;-70
2021/10/12 10:49:16;;;;;;;0.60;0.60;;;;;;;18.54;28.77;99814.88;5073434;28;20083;-73
2021/10/12 10:51:51;;;;;;;0.70;0.70;;;;;;;18.45;28.66;99805.94;5072249;28;20498;-73
2021/10/12 10:54:36;;;;;;;0.40;0.40;;;;;;;17.93;29.91;99809.88;5073234;28;20037;-71
2021/10/12 10:57:19;;;;;;;0.70;0.70;;;;;;;19.11;28.42;99812.94;5071825;28;20418;-72
2021/10/12 10:59:48;;;;;;;0.73;0.73;;;;;;;19.01;28.28;99830.59;5073062;28;20099;-71
2021/10/12 11:02:34;;;;;;;0.70;0.70;;;;;;;20.61;26.15;99811.84;5038225;28;20423;-70
2021/10/12 11:05:00;;;;;;;0.70;0.70;;;;;;;19.36;27.38;99808.63;5065514;28;20072;-70
2021/10/12 11:07:27;;;;;;;0.40;0.40;;;;;;;18.58;28.89;99804.34;5071768;28;20055;-72
2021/10/12 11:09:55;;;;;;;0.50;0.50;;;;;;;18.16;29.38;99795.16;5071638;28;20060;-71
2021/10/12 11:12:29;;;;;;;0.38;0.38;;;;;;;18.31;29.49;99793.19;5055273;28;20057;-71
2021/10/12 11:15:04;;;;;;;0.50;0.50;;;;;;;19.69;27.31;99796.94;5071364;28;20420;-71
2021/10/12 11:17:30;;;;;;;0.50;0.50;;;;;;;19.22;27.94;99806.88;5073058;28;20135;-70
2021/10/12 11:19:57;;;;;;;0.50;0.50;;;;;;;19.80;27.56;99799.09;5054650;28;20143;-72
2021/10/12 11:22:24;;;;;;;0.50;0.50;;;;;;;19.87;27.35;99799.94;5073172;28;20079;-70
2021/10/12 11:24:50;;;;;;;0.50;0.50;;;;;;;19.83;27.60;99782.22;5054703;28;20103;-71
2021/10/12 11:27:16;;;;;;;0.40;0.40;;;;;;;18.98;28.44;99794.53;5054811;28;20060;-72
2021/10/12 11:29:42;;;;;;;0.30;0.30;;;;;;;18.39;29.47;99793.06;5054509;28;20048;-72
2021/10/12 11:32:08;;;;;;;0.30;0.30;;;;;;;17.99;30.32;99792.69;5054444;28;20052;-71
2021/10/12 11:34:35;;;;;;;0.40;0.40;;;;;;;18.58;29.13;99801.63;5037799;28;20399;-73